Time;durP1;ratioP1;P1;durP2;ratioP2;P2;SDS_P1;SDS_P2;PMS_P1;PMS_P2;Temp;Humidity;BMP_temperature;BMP_pressure;BME280_temperature;BME280_humidity;BME280_pressure;Samples;Min_cycle;Max_cycle;Signal;HPM_P1;HPM_P2
2022/05/21 00:00:32;;;;;;;;;;;;;;;14.45;64.27;101655.22;5094889;28;20293;-76
2022/05/21 00:02:58;;;;;;;;;;;;;;;14.38;64.84;101652.78;5093742;28;19934;-76
2022/05/21 00:05:24;;;;;;;;;;;;;;;14.32;64.30;101653.78;5096358;28;19924;-76
2022/05/21 00:07:52;;;;;;;;;;;;;;;14.42;64.80;101651.81;5087214;28;21440;-76
2022/05/21 00:10:19;;;;;;;;;;;;;;;14.29;65.25;101664.31;5094601;28;20003;-77
2022/05/21 00:12:44;;;;;;;;;;;;;;;14.24;66.11;101661.78;5090229;28;20411;-74
2022/05/21 00:15:12;;;;;;;;;;;;;;;14.19;65.58;101660.16;5087822;28;19920;-74
2022/05/21 00:17:37;;;;;;;;;;;;;;;14.18;65.91;101655.81;5092043;28;19952;-74
2022/05/21 00:20:03;;;;;;;;;;;;;;;14.36;64.82;101659.78;5088716;28;20021;-74
2022/05/21 00:22:28;;;;;;;;;;;;;;;14.26;65.30;101665.22;5070038;28;20284;-74
2022/05/21 00:24:53;;;;;;;;;;;;;;;14.26;65.29;101656.53;5088786;28;19928;-76
2022/05/21 00:27:19;;;;;;;;;;;;;;;14.20;65.09;101659.28;5068163;28;19928;-76
2022/05/21 00:29:44;;;;;;;;;;;;;;;14.29;65.37;101662.53;5093272;28;20427;-76
2022/05/21 00:32:10;;;;;;;;;;;;;;;14.27;64.80;101653.00;5094839;28;19919;-76
2022/05/21 00:34:35;;;;;;;;;;;;;;;14.18;65.39;101661.91;5087730;28;19924;-76
2022/05/21 00:37:01;;;;;;;;;;;;;;;14.11;65.37;101662.09;5072084;28;19970;-74
2022/05/21 00:39:27;;;;;;;;;;;;;;;14.06;65.96;101658.69;5089631;28;19924;-74
2022/05/21 00:41:52;;;;;;;;;;;;;;;14.07;66.00;101642.13;5091922;28;19927;-74
2022/05/21 00:44:18;;;;;;;;;;;;;;;14.05;65.99;101652.63;5086049;28;19936;-74
2022/05/21 00:46:44;;;;;;;;;;;;;;;14.03;65.86;101651.78;5084971;28;19990;-74
2022/05/21 00:49:09;;;;;;;;;;;;;;;13.98;66.01;101656.25;5087988;28;19924;-74
2022/05/21 00:51:40;;;;;;;;;;;;;;;13.93;65.82;101652.03;5089795;28;19970;-74
2022/05/21 00:54:07;;;;;;;;;;;;;;;14.04;65.64;101653.53;5088977;28;20393;-77
2022/05/21 00:56:36;;;;;;;;;;;;;;;14.12;65.34;101655.94;5088312;28;19963;-77
2022/05/21 01:01:48;;;;;;;;;;;;;;;13.97;65.24;101658.88;5085316;28;19935;-74
2022/05/21 01:04:13;;;;;;;;;;;;;;;13.92;67.13;101660.75;5086333;28;20020;-77
2022/05/21 01:06:39;;;;;;;;;;;;;;;13.89;66.64;101661.66;5087498;28;19946;-77
2022/05/21 01:09:05;;;;;;;;;;;;;;;13.87;67.09;101659.97;5093588;28;19922;-76
2022/05/21 01:11:30;;;;;;;;;;;;;;;13.84;66.71;101671.34;5091818;28;19916;-76
2022/05/21 01:13:56;;;;;;;;;;;;;;;13.86;66.07;101673.91;5073217;28;19974;-76
2022/05/21 01:16:21;;;;;;;;;;;;;;;13.84;66.10;101665.28;5091774;28;19930;-76
2022/05/21 01:18:46;;;;;;;;;;;;;;;13.84;65.86;101671.34;5092367;28;19927;-76
2022/05/21 01:21:12;;;;;;;;;;;;;;;13.91;66.17;101664.25;5087735;28;19924;-77
2022/05/21 01:23:37;;;;;;;;;;;;;;;13.86;65.91;101669.56;5087883;28;19927;-77
2022/05/21 01:26:04;;;;;;;;;;;;;;;13.81;66.44;101662.72;5093782;28;19981;-77
2022/05/21 01:28:31;;;;;;;;;;;;;;;13.82;65.65;101662.66;5086848;28;20004;-77
2022/05/21 01:30:58;;;;;;;;;;;;;;;13.74;66.86;101659.38;5087396;28;19920;-77
2022/05/21 01:33:25;;;;;;;;;;;;;;;13.93;66.10;101662.47;5087051;28;19924;-77
2022/05/21 01:35:51;;;;;;;;;;;;;;;13.82;66.15;101660.06;5091885;28;19990;-77
2022/05/21 01:38:18;;;;;;;;;;;;;;;13.78;65.63;101666.25;5073648;28;19959;-77
2022/05/21 01:40:44;;;;;;;;;;;;;;;13.73;66.35;101662.84;5088569;28;19986;-77
2022/05/21 01:45:53;;;;;;;;;;;;;;;13.70;66.29;101668.16;5082394;28;19978;-77
2022/05/21 01:48:21;;;;;;;;;;;;;;;13.73;66.27;101660.25;5085077;28;19920;-77
2022/05/21 01:50:47;;;;;;;;;;;;;;;13.74;66.42;101659.38;5086599;28;20389;-77
2022/05/21 01:53:12;;;;;;;;;;;;;;;13.54;66.63;101664.09;5086058;28;19953;-77
2022/05/21 01:55:37;;;;;;;;;;;;;;;13.64;65.73;101663.88;5096709;28;19928;-77
2022/05/21 01:58:03;;;;;;;;;;;;;;;13.74;65.23;101668.06;5092438;28;19920;-77
2022/05/21 02:00:28;;;;;;;;;;;;;;;13.68;64.46;101660.34;5086338;28;20388;-77
2022/05/21 02:02:53;;;;;;;;;;;;;;;13.83;63.67;101661.78;5090921;28;19924;-77
2022/05/21 02:05:19;;;;;;;;;;;;;;;13.65;64.91;101659.50;5067845;28;19944;-76
2022/05/21 02:07:44;;;;;;;;;;;;;;;13.73;64.56;101668.94;5089723;28;19920;-74
2022/05/21 02:10:10;;;;;;;;;;;;;;;13.89;63.80;101656.44;5092222;28;19927;-73
2022/05/21 02:12:36;;;;;;;;;;;;;;;13.86;64.13;101645.19;5086791;28;20301;-73
2022/05/21 02:15:01;;;;;;;;;;;;;;;13.73;64.15;101649.78;5090303;28;19920;-74
2022/05/21 02:17:26;;;;;;;;;;;;;;;13.80;63.70;101648.78;5085763;28;19920;-73
2022/05/21 02:19:52;;;;;;;;;;;;;;;13.73;64.48;101647.19;5088226;28;19993;-76
2022/05/21 02:22:17;;;;;;;;;;;;;;;13.81;64.00;101657.50;5086072;28;19928;-77
2022/05/21 02:24:43;;;;;;;;;;;;;;;13.89;64.67;101658.19;5086998;28;19934;-77
2022/05/21 02:27:12;;;;;;;;;;;;;;;13.75;64.67;101654.13;5085361;28;19924;-77
2022/05/21 02:29:37;;;;;;;;;;;;;;;13.62;64.78;101665.66;5068949;28;20677;-77
2022/05/21 02:32:04;;;;;;;;;;;;;;;13.66;64.60;101664.72;5087331;28;20015;-77
2022/05/21 02:34:30;;;;;;;;;;;;;;;13.70;64.90;101663.78;5086134;28;19923;-77
2022/05/21 02:39:39;;;;;;;;;;;;;;;13.77;63.37;101660.16;5083399;28;20030;-76
2022/05/21 02:42:42;;;;;;;;;;;;;;;13.83;63.35;101656.56;5085224;28;19958;-76
2022/05/21 02:44:50;;;;;;;;;;;;;;;13.66;63.29;101656.03;5081807;28;20369;-77
2022/05/21 02:47:15;;;;;;;;;;;;;;;13.62;64.25;101662.19;5081363;28;19935;-77
2022/05/21 02:49:40;;;;;;;;;;;;;;;13.65;63.78;101659.50;5085052;28;19924;-77
2022/05/21 02:52:06;;;;;;;;;;;;;;;13.66;63.68;101662.09;5087997;28;19958;-77
2022/05/21 02:54:31;;;;;;;;;;;;;;;13.80;62.22;101659.25;5090443;28;20700;-77
2022/05/21 02:56:57;;;;;;;;;;;;;;;13.69;62.31;101664.69;5096817;28;19924;-76
2022/05/21 02:59:22;;;;;;;;;;;;;;;13.70;63.03;101661.16;5064961;28;19983;-76
2022/05/21 03:01:47;;;;;;;;;;;;;;;13.49;63.81;101651.09;5087501;28;19924;-76
2022/05/21 03:04:13;;;;;;;;;;;;;;;13.59;64.00;101657.88;5084786;28;19974;-76
2022/05/21 03:06:38;;;;;;;;;;;;;;;13.57;64.06;101657.06;5086633;28;20391;-76
2022/05/21 03:11:48;;;;;;;;;;;;;;;13.72;62.32;101656.78;5082870;28;19935;-76
2022/05/21 03:14:13;;;;;;;;;;;;;;;13.63;63.23;101651.72;5086177;28;19916;-77
2022/05/21 03:16:38;;;;;;;;;;;;;;;13.56;63.96;101647.50;5086581;28;20339;-74
2022/05/21 03:19:03;;;;;;;;;;;;;;;13.49;63.20;101652.88;5068930;28;20058;-74
2022/05/21 03:21:29;;;;;;;;;;;;;;;13.37;62.93;101655.72;5088676;28;20361;-74
2022/05/21 03:23:55;;;;;;;;;;;;;;;13.43;63.37;101656.47;5094599;28;19920;-76
2022/05/21 03:26:20;;;;;;;;;;;;;;;13.54;63.67;101651.91;5091357;28;19928;-76
2022/05/21 03:28:45;;;;;;;;;;;;;;;13.50;63.05;101654.56;5086580;28;19935;-74
2022/05/21 03:31:11;;;;;;;;;;;;;;;13.39;64.61;101653.94;5071970;28;20293;-76
2022/05/21 03:33:36;;;;;;;;;;;;;;;13.52;62.94;101661.47;5091645;28;19931;-76
2022/05/21 03:36:02;;;;;;;;;;;;;;;13.57;62.58;101671.84;5091010;28;19966;-76
2022/05/21 03:38:27;;;;;;;;;;;;;;;13.43;63.29;101672.13;5076369;28;19928;-77
2022/05/21 03:40:52;;;;;;;;;;;;;;;13.54;62.32;101669.31;5090379;28;20019;-77
2022/05/21 03:43:18;;;;;;;;;;;;;;;13.49;63.17;101669.38;5090283;28;19927;-77
2022/05/21 03:45:43;;;;;;;;;;;;;;;13.55;62.85;101671.88;5087129;28;20030;-77
2022/05/21 03:48:08;;;;;;;;;;;;;;;13.66;62.58;101672.56;5070346;28;19920;-77
2022/05/21 03:50:34;;;;;;;;;;;;;;;13.66;61.34;101663.84;5090026;28;19931;-74
2022/05/21 03:53:00;;;;;;;;;;;;;;;13.46;61.85;101674.66;5093637;28;19924;-73
2022/05/21 03:55:25;;;;;;;;;;;;;;;13.55;61.92;101665.81;5085644;28;19931;-74
2022/05/21 03:57:51;;;;;;;;;;;;;;;13.57;62.53;101662.28;5092835;28;19924;-77
2022/05/21 04:00:18;;;;;;;;;;;;;;;13.51;61.72;101658.91;5100615;28;19919;-76
2022/05/21 04:02:43;;;;;;;;;;;;;;;13.45;62.66;101662.50;5090395;28;19938;-76
2022/05/21 04:05:09;;;;;;;;;;;;;;;13.51;61.57;101656.31;5074794;28;19936;-76
2022/05/21 04:07:35;;;;;;;;;;;;;;;13.36;64.05;101667.03;5094001;28;19931;-76
2022/05/21 04:10:00;;;;;;;;;;;;;;;13.26;62.99;101668.94;5091911;28;19924;-73
2022/05/21 04:12:25;;;;;;;;;;;;;;;13.48;63.08;101662.44;5089400;28;19924;-73
2022/05/21 04:14:51;;;;;;;;;;;;;;;13.30;63.34;101670.63;5090858;28;19920;-74
2022/05/21 04:17:16;;;;;;;;;;;;;;;13.37;62.44;101668.75;5073957;28;19931;-73
2022/05/21 04:19:42;;;;;;;;;;;;;;;13.29;64.34;101678.44;5089065;28;19977;-76
2022/05/21 04:22:07;;;;;;;;;;;;;;;13.33;63.63;101673.16;5093855;28;19924;-76
2022/05/21 04:24:33;;;;;;;;;;;;;;;13.44;61.94;101668.59;5095158;28;19927;-76
2022/05/21 04:26:58;;;;;;;;;;;;;;;13.42;61.73;101673.00;5087130;28;19927;-76
2022/05/21 04:29:23;;;;;;;;;;;;;;;13.57;62.25;101677.94;5089148;28;19919;-76
2022/05/21 04:31:49;;;;;;;;;;;;;;;13.54;62.91;101685.84;5089245;28;20011;-77
2022/05/21 04:34:14;;;;;;;;;;;;;;;13.49;63.62;101674.59;5093337;28;20026;-77
2022/05/21 04:36:40;;;;;;;;;;;;;;;13.40;63.02;101681.75;5092616;28;19920;-77
2022/05/21 04:39:05;;;;;;;;;;;;;;;13.35;64.28;101687.03;5094131;28;19923;-76
2022/05/21 04:41:30;;;;;;;;;;;;;;;13.49;63.27;101685.03;5090424;28;19916;-76
2022/05/21 04:43:56;;;;;;;;;;;;;;;13.48;63.63;101677.25;5087503;28;20307;-74
2022/05/21 04:46:23;;;;;;;;;;;;;;;13.50;63.75;101676.31;5080707;28;19931;-73
2022/05/21 04:48:48;;;;;;;;;;;;;;;13.57;63.36;101680.56;5068142;28;19928;-74
2022/05/21 04:51:14;;;;;;;;;;;;;;;13.61;62.69;101682.19;5086424;28;19944;-74
2022/05/21 04:53:40;;;;;;;;;;;;;;;13.51;63.66;101685.88;5069705;28;20019;-73
2022/05/21 04:56:05;;;;;;;;;;;;;;;13.69;63.86;101685.59;5089510;28;19960;-74
2022/05/21 04:58:31;;;;;;;;;;;;;;;13.67;63.05;101686.50;5087498;28;19927;-73
2022/05/21 05:00:57;;;;;;;;;;;;;;;13.72;63.65;101690.75;5089953;28;19970;-75
2022/05/21 05:03:22;;;;;;;;;;;;;;;13.69;64.41;101689.94;5091171;28;20434;-76
2022/05/21 05:05:47;;;;;;;;;;;;;;;13.72;65.18;101698.56;5091088;28;19924;-76
2022/05/21 05:08:14;;;;;;;;;;;;;;;13.86;63.15;101700.03;5093262;28;19920;-74
2022/05/21 05:10:39;;;;;;;;;;;;;;;14.04;61.57;101697.94;5089258;28;19928;-74
2022/05/21 05:13:06;;;;;;;;;;;;;;;13.93;62.00;101702.53;5089870;28;19977;-73
2022/05/21 05:15:31;;;;;;;;;;;;;;;14.04;62.96;101702.28;5087131;28;19920;-74
2022/05/21 05:17:58;;;;;;;;;;;;;;;13.96;63.66;101704.22;5092368;28;19923;-74
2022/05/21 05:20:23;;;;;;;;;;;;;;;14.09;62.59;101703.03;5089708;28;20448;-76
2022/05/21 05:22:49;;;;;;;;;;;;;;;13.88;63.21;101706.94;5088986;28;19935;-76
2022/05/21 05:25:15;;;;;;;;;;;;;;;14.02;62.17;101711.91;5091765;28;19930;-76
2022/05/21 05:27:40;;;;;;;;;;;;;;;14.06;62.23;101714.41;5088507;28;19962;-76
2022/05/21 05:30:06;;;;;;;;;;;;;;;14.21;62.10;101716.72;5070285;28;19931;-76
2022/05/21 05:32:32;;;;;;;;;;;;;;;14.09;63.18;101716.09;5088298;28;20531;-76
2022/05/21 05:34:57;;;;;;;;;;;;;;;14.11;63.02;101717.81;5072521;28;19932;-76
2022/05/21 05:37:22;;;;;;;;;;;;;;;14.16;62.28;101715.09;5088487;28;19924;-76
2022/05/21 05:39:48;;;;;;;;;;;;;;;14.08;62.57;101719.63;5093466;28;19924;-76
2022/05/21 05:42:13;;;;;;;;;;;;;;;14.17;63.20;101727.28;5093702;28;19923;-76
2022/05/21 05:44:38;;;;;;;;;;;;;;;14.10;63.68;101718.72;5086053;28;20319;-77
2022/05/21 05:47:04;;;;;;;;;;;;;;;14.11;62.55;101714.34;5069222;28;19916;-76
2022/05/21 05:49:29;;;;;;;;;;;;;;;14.28;61.40;101707.88;5086006;28;19931;-76
2022/05/21 05:51:54;;;;;;;;;;;;;;;14.15;62.90;101714.25;5085568;28;20430;-77
2022/05/21 05:54:20;;;;;;;;;;;;;;;14.26;61.15;101722.72;5086653;28;19932;-74
2022/05/21 05:56:45;;;;;;;;;;;;;;;14.35;62.18;101724.28;5089418;28;20405;-74
2022/05/21 06:02:58;;;;;;;;;;;;;;;14.29;61.96;101720.03;5082397;28;20006;-74
2022/05/21 06:04:41;;;;;;;;;;;;;;;14.25;61.53;101709.69;5086503;28;20416;-77
2022/05/21 06:07:06;;;;;;;;;;;;;;;14.17;61.27;101714.22;5095269;28;19955;-77
2022/05/21 06:09:32;;;;;;;;;;;;;;;14.30;61.62;101715.66;5070483;28;19927;-76
2022/05/21 06:11:58;;;;;;;;;;;;;;;14.11;61.30;101724.81;5087507;28;20837;-75
2022/05/21 06:14:23;;;;;;;;;;;;;;;14.24;61.11;101729.72;5079857;28;19971;-76
2022/05/21 06:16:48;;;;;;;;;;;;;;;14.04;61.35;101725.81;5070394;28;20674;-77
2022/05/21 06:19:13;;;;;;;;;;;;;;;14.22;61.13;101728.91;5087241;28;19928;-77
2022/05/21 06:21:39;;;;;;;;;;;;;;;14.04;61.51;101723.19;5083713;28;19928;-77
2022/05/21 06:24:04;;;;;;;;;;;;;;;13.98;62.39;101732.00;5071263;28;20373;-77
2022/05/21 06:26:29;;;;;;;;;;;;;;;13.97;60.35;101729.41;5092534;28;19982;-77
2022/05/21 06:28:55;;;;;;;;;;;;;;;14.01;62.33;101734.56;5085289;28;19924;-77
2022/05/21 06:31:20;;;;;;;;;;;;;;;14.21;61.52;101726.31;5087251;28;19924;-77
2022/05/21 06:33:45;;;;;;;;;;;;;;;14.18;61.05;101731.59;5088053;28;20571;-77
2022/05/21 06:36:12;;;;;;;;;;;;;;;14.18;60.85;101729.84;5086423;28;19920;-76
2022/05/21 06:38:38;;;;;;;;;;;;;;;14.28;61.42;101734.00;5085820;28;20428;-76
2022/05/21 06:41:06;;;;;;;;;;;;;;;14.26;62.04;101725.31;5092664;28;19924;-76
2022/05/21 06:43:31;;;;;;;;;;;;;;;14.47;61.14;101731.00;5046552;28;19924;-77
2022/05/21 06:45:57;;;;;;;;;;;;;;;14.39;60.78;101730.28;5087432;28;19924;-76
2022/05/21 06:48:22;;;;;;;;;;;;;;;14.53;62.04;101736.94;5087209;28;19920;-77
2022/05/21 06:50:47;;;;;;;;;;;;;;;14.35;61.20;101739.97;5089246;28;20014;-77
2022/05/21 06:53:13;;;;;;;;;;;;;;;14.33;61.65;101749.59;5084425;28;20014;-76
2022/05/21 06:55:39;;;;;;;;;;;;;;;14.31;61.84;101739.19;5067460;28;20031;-76
2022/05/21 06:58:05;;;;;;;;;;;;;;;14.47;60.05;101734.50;5087130;28;20037;-77
2022/05/21 07:00:31;;;;;;;;;;;;;;;14.35;59.77;101744.34;5081314;28;20598;-76
2022/05/21 07:02:56;;;;;;;;;;;;;;;14.13;60.50;101742.16;5089898;28;19920;-74
2022/05/21 07:08:13;;;;;;;;;;;;;;;14.32;60.99;101742.66;5080055;28;19926;-76
2022/05/21 07:10:39;;;;;;;;;;;;;;;14.53;61.00;101746.56;5084231;28;19932;-76
2022/05/21 07:13:04;;;;;;;;;;;;;;;14.50;61.06;101736.16;5068169;28;19946;-76
2022/05/21 07:15:30;;;;;;;;;;;;;;;14.65;59.55;101749.75;5071669;28;19924;-74
2022/05/21 07:18:00;;;;;;;;;;;;;;;14.67;59.50;101752.34;5088394;28;20314;-77
2022/05/21 07:20:25;;;;;;;;;;;;;;;14.45;58.52;101753.69;5086154;28;19930;-76
2022/05/21 07:22:51;;;;;;;;;;;;;;;14.53;59.74;101751.78;5086505;28;19920;-76
2022/05/21 07:25:19;;;;;;;;;;;;;;;14.54;59.90;101756.97;5082698;28;20377;-77
2022/05/21 07:27:44;;;;;;;;;;;;;;;14.53;59.42;101754.41;5085475;28;19927;-77
2022/05/21 07:30:10;;;;;;;;;;;;;;;14.43;58.30;101765.94;5084021;28;19928;-76
2022/05/21 07:32:35;;;;;;;;;;;;;;;14.37;57.68;101753.88;5089535;28;19922;-77
2022/05/21 07:35:05;;;;;;;;;;;;;;;14.53;58.85;101773.53;5085266;28;19920;-78
2022/05/21 07:37:31;;;;;;;;;;;;;;;14.61;58.28;101752.47;5067623;28;19955;-78
2022/05/21 07:39:56;;;;;;;;;;;;;;;14.67;58.72;101747.97;5086185;28;19967;-77
2022/05/21 07:42:22;;;;;;;;;;;;;;;14.55;57.92;101752.59;5067962;28;19927;-77
2022/05/21 07:44:47;;;;;;;;;;;;;;;14.72;59.15;101751.34;5084242;28;19920;-75
2022/05/21 07:47:15;;;;;;;;;;;;;;;14.64;57.49;101739.34;5068013;28;19931;-75
2022/05/21 07:49:41;;;;;;;;;;;;;;;14.70;58.71;101745.28;5084227;28;20295;-78
2022/05/21 07:52:07;;;;;;;;;;;;;;;14.61;58.59;101749.88;5084299;28;19927;-78
2022/05/21 07:54:32;;;;;;;;;;;;;;;14.55;58.08;101745.63;5067952;28;20407;-76
2022/05/21 07:56:59;;;;;;;;;;;;;;;14.51;57.27;101751.81;5086180;28;19970;-75
2022/05/21 07:59:24;;;;;;;;;;;;;;;14.55;57.05;101760.44;5069808;28;19954;-78
2022/05/21 08:01:49;;;;;;;;;;;;;;;14.68;56.82;101761.91;5086698;28;20370;-78
2022/05/21 08:04:17;;;;;;;;;;;;;;;14.54;57.91;101762.19;5074157;28;19920;-78
2022/05/21 08:06:42;;;;;;;;;;;;;;;14.68;56.50;101759.31;5091946;28;19924;-77
2022/05/21 08:09:07;;;;;;;;;;;;;;;14.71;56.93;101767.09;5090449;28;20442;-75
2022/05/21 08:11:34;;;;;;;;;;;;;;;14.68;56.49;101759.31;5092451;28;19923;-76
2022/05/21 08:13:59;;;;;;;;;;;;;;;14.80;57.41;101762.50;5098882;28;19965;-78
2022/05/21 08:16:24;;;;;;;;;;;;;;;14.89;56.06;101769.28;5071676;28;19924;-78
2022/05/21 08:18:50;;;;;;;;;;;;;;;14.87;54.94;101758.88;5101500;28;20419;-78
2022/05/21 08:21:15;;;;;;;;;;;;;;;14.81;57.15;101752.91;5073174;28;19920;-78
2022/05/21 08:29:08;;;;;;;;;;;;;;;14.83;56.41;101757.22;5094246;28;19973;-75
2022/05/21 08:31:33;;;;;;;;;;;;;;;14.78;56.08;101756.47;5061258;28;20288;-77
2022/05/21 08:34:00;;;;;;;;;;;;;;;14.88;55.74;101757.13;5095516;28;19920;-78
2022/05/21 08:36:25;;;;;;;;;;;;;;;14.84;57.01;101758.94;5094196;28;19920;-78
2022/05/21 08:38:51;;;;;;;;;;;;;;;14.93;55.85;101760.47;5104617;28;19920;-78
2022/05/21 08:41:21;;;;;;;;;;;;;;;14.95;56.31;101763.91;5096001;28;19920;-77
2022/05/21 08:44:01;;;;;;;;;;;;;;;14.96;55.87;101777.88;5094810;28;19931;-77
2022/05/21 08:46:40;;;;;;;;;;;;;;;15.01;55.35;101773.38;5084184;28;20011;-75
2022/05/21 08:49:26;;;;;;;;;;;;;;;14.80;55.77;101777.34;5087666;28;19950;-75
2022/05/21 08:51:56;;;;;;;;;;;;;;;14.99;56.08;101781.28;5044648;28;19927;-75
2022/05/21 08:54:23;;;;;;;;;;;;;;;14.92;55.52;101774.44;5088779;28;19920;-76
2022/05/21 08:56:50;;;;;;;;;;;;;;;15.08;55.86;101781.06;5090877;28;20019;-78
2022/05/21 08:59:17;;;;;;;;;;;;;;;14.93;56.37;101783.16;5071086;28;20495;-78
2022/05/21 09:01:44;;;;;;;;;;;;;;;14.98;55.81;101770.88;5067828;28;20371;-78
2022/05/21 09:04:12;;;;;;;;;;;;;;;15.10;55.48;101768.78;5092559;28;20404;-78
2022/05/21 09:06:59;;;;;;;;;;;;;;;15.03;55.67;101776.84;5089449;28;19935;-77
2022/05/21 09:09:33;;;;;;;;;;;;;;;15.10;57.00;101781.00;5088022;28;19985;-77
2022/05/21 09:12:02;;;;;;;;;;;;;;;15.02;56.62;101783.81;5088924;28;19920;-78
2022/05/21 09:14:30;;;;;;;;;;;;;;;15.01;56.26;101782.09;5091805;28;19920;-78
2022/05/21 09:16:55;;;;;;;;;;;;;;;15.05;56.33;101782.88;5083814;28;19920;-78
2022/05/21 09:19:23;;;;;;;;;;;;;;;15.01;56.26;101784.72;5089533;28;19931;-78
2022/05/21 09:21:50;;;;;;;;;;;;;;;14.99;57.12;101791.75;5069916;28;19924;-78
2022/05/21 09:24:33;;;;;;;;;;;;;;;15.16;55.94;101786.09;5086061;28;20454;-78
2022/05/21 09:26:59;;;;;;;;;;;;;;;15.07;55.41;101783.69;5083587;28;19927;-78
2022/05/21 09:29:26;;;;;;;;;;;;;;;15.17;56.50;101785.22;5086237;28;19922;-78
2022/05/21 09:31:55;;;;;;;;;;;;;;;15.06;56.88;101793.34;5091248;28;19986;-78
2022/05/21 09:34:26;;;;;;;;;;;;;;;15.13;56.19;101788.78;5084829;28;20014;-78
2022/05/21 09:36:52;;;;;;;;;;;;;;;15.15;56.58;101789.63;5081317;28;20010;-78
2022/05/21 09:39:41;;;;;;;;;;;;;;;15.26;55.98;101787.63;5067967;28;20011;-78
2022/05/21 09:42:12;;;;;;;;;;;;;;;15.20;56.18;101790.38;5081863;28;19920;-78
2022/05/21 09:47:27;;;;;;;;;;;;;;;15.27;56.71;101790.19;5086382;28;20739;-75
2022/05/21 09:50:05;;;;;;;;;;;;;;;15.13;57.05;101789.66;5088266;28;19920;-77
2022/05/21 09:52:31;;;;;;;;;;;;;;;15.27;57.06;101777.09;5087334;28;19981;-76
2022/05/21 09:54:57;;;;;;;;;;;;;;;15.14;57.13;101785.28;5093302;28;19923;-77
2022/05/21 09:57:24;;;;;;;;;;;;;;;15.13;56.92;101778.31;5088030;28;19931;-77
2022/05/21 10:00:02;;;;;;;;;;;;;;;15.05;57.75;101780.28;5085717;28;19912;-77
2022/05/21 10:02:37;;;;;;;;;;;;;;;15.18;56.73;101772.13;5084149;28;19931;-77
2022/05/21 10:05:02;;;;;;;;;;;;;;;15.33;56.59;101771.72;5084860;28;19931;-77
2022/05/21 10:13:13;;;;;;;;;;;;;;;15.58;54.67;101744.91;5089463;28;19974;-75
2022/05/21 10:15:44;;;;;;;;;;;;;;;15.78;57.75;101751.38;5087104;28;19934;-77
2022/05/21 10:18:18;;;;;;;;;;;;;;;15.69;54.30;101751.59;5087978;28;19923;-77
2022/05/21 10:20:46;;;;;;;;;;;;;;;15.58;54.56;101751.00;5087726;28;19920;-77
2022/05/21 10:23:12;;;;;;;;;;;;;;;15.38;55.37;101755.91;5086985;28;20427;-77
2022/05/21 10:26:01;;;;;;;;;;;;;;;15.56;53.29;101742.34;5066305;28;19936;-77
2022/05/21 10:28:45;;;;;;;;;;;;;;;15.54;53.95;101757.22;5067523;28;19924;-75
2022/05/21 10:31:19;;;;;;;;;;;;;;;15.57;52.94;101753.69;5094082;28;20018;-75
2022/05/21 10:33:44;;;;;;;;;;;;;;;15.65;53.35;101760.44;5094603;28;20396;-75
2022/05/21 10:36:22;;;;;;;;;;;;;;;15.63;51.97;101746.50;5092721;28;19919;-78
2022/05/21 10:38:47;;;;;;;;;;;;;;;15.82;53.90;101746.91;5073571;28;20014;-78
2022/05/21 10:41:32;;;;;;;;;;;;;;;15.85;54.20;101742.44;5093909;28;19979;-78
2022/05/21 10:44:16;;;;;;;;;;;;;;;15.82;52.31;101747.78;5087337;28;19928;-78
2022/05/21 10:46:57;;;;;;;;;;;;;;;15.72;50.99;101748.88;5091370;28;20411;-78
2022/05/21 10:49:32;;;;;;;;;;;;;;;15.71;53.35;101764.66;5089223;28;20935;-77
2022/05/21 10:51:58;;;;;;;;;;;;;;;15.79;51.68;101762.72;5085154;28;19963;-78
2022/05/21 10:54:50;;;;;;;;;;;;;;;15.93;53.30;101765.81;5086384;28;19959;-77
2022/05/21 10:57:18;;;;;;;;;;;;;;;15.86;51.32;101765.16;5095108;28;19919;-78
2022/05/21 10:59:43;;;;;;;;;;;;;;;15.86;51.90;101761.66;5085622;28;20297;-78
2022/05/21 11:02:09;;;;;;;;;;;;;;;16.02;52.89;101755.06;5083204;28;19924;-78
2022/05/21 11:04:37;;;;;;;;;;;;;;;15.99;49.94;101749.91;5084404;28;20563;-76
2022/05/21 11:07:09;;;;;;;;;;;;;;;15.97;48.88;101763.09;5085662;28;19929;-75
2022/05/21 11:09:37;;;;;;;;;;;;;;;15.99;49.82;101759.56;5068635;28;19931;-78
2022/05/21 11:12:13;;;;;;;;;;;;;;;15.99;51.66;101762.19;5070389;28;19938;-75
2022/05/21 11:14:44;;;;;;;;;;;;;;;15.97;52.06;101772.69;5087572;28;19966;-75
2022/05/21 11:17:19;;;;;;;;;;;;;;;15.96;50.21;101760.50;5089154;28;20010;-75
2022/05/21 11:19:51;;;;;;;;;;;;;;;16.00;50.11;101756.03;5090509;28;19920;-75
2022/05/21 11:22:18;;;;;;;;;;;;;;;15.94;49.41;101767.53;5086107;28;19959;-75
2022/05/21 11:24:53;;;;;;;;;;;;;;;15.91;49.10;101754.53;5086892;28;20735;-75
2022/05/21 11:27:18;;;;;;;;;;;;;;;16.02;48.31;101760.31;5082956;28;19924;-75
2022/05/21 11:29:43;;;;;;;;;;;;;;;15.95;49.00;101749.19;5081332;28;19939;-75
2022/05/21 11:37:52;;;;;;;;;;;;;;;15.91;49.21;101763.25;5081114;28;19927;-75
2022/05/21 11:40:36;;;;;;;;;;;;;;;16.05;49.16;101748.88;5070193;28;19956;-75
2022/05/21 11:43:01;;;;;;;;;;;;;;;16.17;50.14;101748.53;5089457;28;20323;-75
2022/05/21 11:45:27;;;;;;;;;;;;;;;16.07;49.79;101740.09;5089227;28;19924;-76
2022/05/21 11:47:54;;;;;;;;;;;;;;;16.10;48.37;101741.78;5082895;28;20571;-78
2022/05/21 11:50:25;;;;;;;;;;;;;;;16.10;48.74;101744.41;5088796;28;19975;-77
2022/05/21 11:52:58;;;;;;;;;;;;;;;16.15;49.52;101747.75;5076574;28;19920;-78
2022/05/21 11:55:28;;;;;;;;;;;;;;;16.28;46.09;101743.88;5090179;28;20408;-78
2022/05/21 11:57:58;;;;;;;;;;;;;;;16.45;47.72;101744.22;5087639;28;19924;-78
2022/05/21 12:00:26;;;;;;;;;;;;;;;16.40;49.16;101752.22;5085753;28;19955;-78
2022/05/21 12:02:54;;;;;;;;;;;;;;;16.37;45.32;101738.38;5092054;28;20408;-78
2022/05/21 12:05:33;;;;;;;;;;;;;;;16.33;47.42;101760.31;5095495;28;19924;-78
2022/05/21 12:08:15;;;;;;;;;;;;;;;16.29;46.65;101756.06;5091776;28;19932;-78
2022/05/21 12:11:02;;;;;;;;;;;;;;;16.25;46.42;101749.22;5093580;28;19920;-78
2022/05/21 12:13:33;;;;;;;;;;;;;;;16.33;46.32;101744.59;5084147;28;19986;-78
2022/05/21 12:16:22;;;;;;;;;;;;;;;16.41;46.38;101737.34;5088174;28;19942;-77
2022/05/21 12:18:47;;;;;;;;;;;;;;;16.45;51.82;101734.59;5070966;28;19924;-78
2022/05/21 12:21:35;;;;;;;;;;;;;;;16.41;46.69;101726.84;5088875;28;19923;-77
2022/05/21 12:24:07;;;;;;;;;;;;;;;16.31;47.80;101736.75;5083980;28;19969;-77
2022/05/21 12:26:40;;;;;;;;;;;;;;;16.41;47.91;101732.97;5070817;28;20362;-77
2022/05/21 12:29:19;;;;;;;;;;;;;;;16.39;45.06;101721.69;5090899;28;19928;-77
2022/05/21 12:31:47;;;;;;;;;;;;;;;16.38;44.94;101716.47;5088506;28;19920;-77
2022/05/21 12:34:13;;;;;;;;;;;;;;;16.51;52.60;101726.56;5088639;28;19928;-77
2022/05/21 12:36:41;;;;;;;;;;;;;;;16.62;45.30;101722.72;5090985;28;19951;-77
2022/05/21 12:39:10;;;;;;;;;;;;;;;16.65;47.02;101717.38;5093463;28;20002;-78
2022/05/21 12:41:40;;;;;;;;;;;;;;;16.65;45.35;101718.25;5090176;28;19954;-76
2022/05/21 12:44:06;;;;;;;;;;;;;;;16.72;45.69;101722.44;5085760;28;19924;-75
2022/05/21 12:46:35;;;;;;;;;;;;;;;16.65;45.90;101714.75;5086087;28;19950;-78
2022/05/21 12:49:04;;;;;;;;;;;;;;;16.53;45.89;101718.63;5074591;28;19924;-78
2022/05/21 12:51:36;;;;;;;;;;;;;;;16.46;44.31;101717.09;5093149;28;19924;-78
2022/05/21 12:54:03;;;;;;;;;;;;;;;16.56;45.73;101709.78;5089675;28;19916;-78
2022/05/21 12:56:30;;;;;;;;;;;;;;;16.62;46.41;101707.84;5091360;28;19951;-76
2022/05/21 12:59:02;;;;;;;;;;;;;;;16.66;44.85;101699.00;5086333;28;19977;-76
2022/05/21 13:01:30;;;;;;;;;;;;;;;16.75;44.39;101716.22;5087581;28;20416;-76
2022/05/21 13:03:56;;;;;;;;;;;;;;;16.64;45.16;101713.06;5091678;28;19923;-76
2022/05/21 13:06:26;;;;;;;;;;;;;;;16.66;45.33;101699.00;5088939;28;19935;-76
2022/05/21 13:08:52;;;;;;;;;;;;;;;16.63;44.41;101700.84;5092627;28;19924;-76
2022/05/21 13:11:22;;;;;;;;;;;;;;;16.47;44.55;101701.31;5091360;28;19977;-76
2022/05/21 13:14:08;;;;;;;;;;;;;;;16.64;45.19;101687.66;5098192;28;19931;-78